createdAt,value
2023-08-29T00:01:06.226Z,98793.38
2023-08-29T00:02:42.510Z,98798.53
2023-08-29T00:04:15.981Z,98795.38
2023-08-29T00:05:48.192Z,98792.03
2023-08-29T00:07:20.368Z,98790.56
2023-08-29T00:08:52.517Z,98786.84
2023-08-29T00:10:25.078Z,98794.13
2023-08-29T00:11:57.651Z,98790.53
2023-08-29T00:13:29.957Z,98797.44
2023-08-29T00:15:02.690Z,98786.84
2023-08-29T00:16:34.952Z,98791.50
2023-08-29T00:18:07.413Z,98785.28
2023-08-29T00:19:39.956Z,98789.91
2023-08-29T00:21:12.083Z,98785.81
2023-08-29T00:22:44.221Z,98791.41
2023-08-29T00:24:16.351Z,98802.25
2023-08-29T00:25:48.477Z,98796.38
2023-08-29T00:35:58.629Z,98796.59
2023-08-29T00:37:30.759Z,98787.56
2023-08-29T00:39:03.415Z,98784.06
2023-08-29T00:40:36.578Z,98784.41
2023-08-29T00:42:08.712Z,98784.59
2023-08-29T00:43:40.943Z,98777.66
2023-08-29T00:45:13.060Z,98784.59
2023-08-29T00:46:46.614Z,98776.44
2023-08-29T00:48:18.835Z,98779.16
2023-08-29T00:49:51.738Z,98784.94
2023-08-29T00:51:23.951Z,98791.13
2023-08-29T00:52:59.832Z,98795.63
2023-08-29T00:54:31.997Z,98792.19
2023-08-29T00:56:06.185Z,98791.66
2023-08-29T00:57:38.445Z,98780.56
2023-08-29T00:59:10.720Z,98782.13
2023-08-29T01:00:43.387Z,98773.28
2023-08-29T01:02:15.499Z,98773.28
2023-08-29T01:03:47.853Z,98774.97
2023-08-29T01:05:22.074Z,98777.81
2023-08-29T01:06:56.786Z,98781.50
2023-08-29T01:08:28.962Z,98780.13
2023-08-29T01:10:01.152Z,98781.63
2023-08-29T01:11:47.481Z,98781.53
2023-08-29T01:13:28.297Z,98776.06
2023-08-29T01:15:06.800Z,98769.69
2023-08-29T01:16:43.123Z,98776.72
2023-08-29T01:18:16.442Z,98774.00
2023-08-29T01:19:52.473Z,98788.16
2023-08-29T01:21:47.402Z,98781.63
2023-08-29T01:23:26.702Z,98775.75
2023-08-29T01:25:06.862Z,98777.50
2023-08-29T01:26:39.304Z,98780.03
2023-08-29T01:28:11.547Z,98775.84
2023-08-29T01:29:44.658Z,98779.63
2023-08-29T01:34:23.733Z,98775.34
2023-08-29T01:35:55.896Z,98779.22
2023-08-29T01:37:27.986Z,98767.50
2023-08-29T01:39:00.132Z,98768.31
2023-08-29T01:40:32.456Z,98771.69
2023-08-29T01:42:04.753Z,98775.13
2023-08-29T01:43:36.943Z,98774.94
2023-08-29T01:45:09.474Z,98772.75
2023-08-29T01:46:41.950Z,98771.59
2023-08-29T01:48:15.595Z,98773.97
2023-08-29T01:49:47.800Z,98771.50
2023-08-29T01:51:20.031Z,98781.56
2023-08-29T01:52:52.125Z,98783.31
2023-08-29T01:54:24.297Z,98777.25
2023-08-29T01:55:57.040Z,98779.03
2023-08-29T01:57:30.082Z,98774.94
2023-08-29T01:59:02.533Z,98765.81
2023-08-29T02:00:35.342Z,98770.03
2023-08-29T02:02:08.918Z,98772.09
2023-08-29T02:03:41.013Z,98767.06
2023-08-29T02:05:13.206Z,98775.13
2023-08-29T02:06:45.456Z,98769.16
2023-08-29T02:08:17.677Z,98766.25
2023-08-29T02:09:49.840Z,98771.19
2023-08-29T02:11:21.959Z,98769.06
2023-08-29T02:12:54.406Z,98765.81
2023-08-29T02:14:26.539Z,98762.16
2023-08-29T02:15:58.909Z,98768.97
2023-08-29T02:17:31.330Z,98761.22
2023-08-29T05:32:29.557Z,98678.03
2023-08-29T05:34:01.827Z,98672.88
2023-08-29T05:37:07.775Z,98676.00
2023-08-29T05:38:40.032Z,98672.19
2023-08-29T05:40:12.520Z,98676.41
2023-08-29T05:41:44.668Z,98678.16
2023-08-29T05:43:16.909Z,98678.16
2023-08-29T05:44:49.182Z,98674.88
2023-08-29T05:46:22.202Z,98680.19
2023-08-29T05:47:54.521Z,98682.03
2023-08-29T05:49:26.817Z,98674.97
2023-08-29T05:50:58.991Z,98679.31
2023-08-29T05:52:31.374Z,98670.28
2023-08-29T05:54:03.655Z,98674.75
2023-08-29T05:55:35.870Z,98675.03
2023-08-29T05:57:11.307Z,98665.31
2023-08-29T05:58:52.528Z,98663.38
2023-08-29T06:02:21.676Z,98663.50
2023-08-29T06:07:48.477Z,98669.94
2023-08-29T06:09:21.132Z,98663.09
2023-08-29T06:11:02.282Z,98668.63
2023-08-29T06:12:34.487Z,98664.56
2023-08-29T06:14:07.256Z,98664.53
2023-08-29T06:15:39.616Z,98667.97
2023-08-29T06:17:11.845Z,98675.00
2023-08-29T06:18:44.984Z,98670.47
2023-08-29T06:20:18.106Z,98659.88
2023-08-29T06:21:50.329Z,98666.00
2023-08-29T06:23:22.686Z,98658.56
2023-08-29T06:24:56.674Z,98668.28
2023-08-29T06:26:28.875Z,98661.25
2023-08-29T06:28:01.608Z,98668.25
2023-08-29T06:29:33.838Z,98661.19
2023-08-29T06:31:08.678Z,98656.69
2023-08-29T06:32:41.875Z,98659.38
2023-08-29T06:34:14.212Z,98653.31
2023-08-29T06:35:47.060Z,98654.72
2023-08-29T06:37:19.513Z,98657.28
2023-08-29T06:38:51.819Z,98664.28
2023-08-29T06:40:24.080Z,98663.34
2023-08-29T06:41:57.095Z,98659.75
2023-08-29T06:43:29.309Z,98665.13
2023-08-29T06:45:01.569Z,98667.66
2023-08-29T06:46:33.778Z,98664.06
2023-08-29T06:48:06.576Z,98670.06
2023-08-29T06:49:39.452Z,98670.91
2023-08-29T06:51:11.827Z,98679.59
2023-08-29T06:52:43.987Z,98673.28
2023-08-29T06:54:16.245Z,98682.81
2023-08-29T06:55:49.391Z,98679.03
2023-08-29T06:57:21.353Z,98679.06
2023-08-29T06:58:54.446Z,98677.69
2023-08-29T07:00:26.978Z,98677.72
2023-08-29T07:01:59.179Z,98676.72
2023-08-29T07:03:31.645Z,98674.91
2023-08-29T07:05:03.890Z,98674.09
2023-08-29T07:06:36.235Z,98672.09
2023-08-29T07:08:09.431Z,98668.41
2023-08-29T07:09:45.036Z,98670.06
2023-08-29T07:11:18.253Z,98676.22
2023-08-29T07:12:50.405Z,98668.34
2023-08-29T07:14:22.964Z,98678.63
2023-08-29T07:15:55.504Z,98677.66
2023-08-29T07:17:28.094Z,98676.63
2023-08-29T07:19:00.417Z,98673.75
2023-08-29T07:20:33.393Z,98668.22
2023-08-29T07:22:17.478Z,98668.53
2023-08-29T07:23:56.044Z,98670.50
2023-08-29T07:25:40.416Z,98668.44
2023-08-29T07:27:12.874Z,98668.44
2023-08-29T07:28:45.147Z,98671.41
2023-08-29T07:30:21.023Z,98666.44
2023-08-29T07:31:53.445Z,98668.19
2023-08-29T07:33:25.829Z,98668.34
2023-08-29T07:34:58.598Z,98663.13
2023-08-29T07:36:33.371Z,98661.38
2023-08-29T07:38:06.033Z,98656.81
2023-08-29T07:39:38.376Z,98658.59
2023-08-29T07:41:10.565Z,98657.06
2023-08-29T07:42:42.765Z,98650.88
2023-08-29T07:44:15.128Z,98662.66
2023-08-29T07:45:49.740Z,98658.25
2023-08-29T07:47:22.041Z,98652.22
2023-08-29T07:48:54.285Z,98650.47
2023-08-29T07:50:27.030Z,98658.13
2023-08-29T07:51:59.573Z,98655.88
2023-08-29T07:53:31.777Z,98660.72
2023-08-29T07:55:06.097Z,98662.09
2023-08-29T07:56:38.505Z,98654.34
2023-08-29T07:58:10.740Z,98653.47
2023-08-29T07:59:43.427Z,98657.91
2023-08-29T08:01:15.604Z,98659.44
2023-08-29T08:02:47.917Z,98664.22
2023-08-29T08:04:20.442Z,98662.84
2023-08-29T08:05:52.871Z,98665.59
2023-08-29T08:07:24.998Z,98661.53
2023-08-29T08:09:00.560Z,98660.63
2023-08-29T08:14:54.500Z,98669.75
2023-08-29T08:16:26.774Z,98660.69
2023-08-29T08:17:59.147Z,98661.97
2023-08-29T08:19:31.608Z,98664.09
2023-08-29T08:21:04.101Z,98660.03
2023-08-29T08:22:37.474Z,98665.81
2023-08-29T08:24:09.847Z,98658.06
2023-08-29T08:25:42.064Z,98662.03
2023-08-29T08:27:14.440Z,98662.25
2023-08-29T08:28:46.706Z,98664.56
2023-08-29T08:30:19.301Z,98660.50
2023-08-29T08:31:51.548Z,98661.13
2023-08-29T08:33:26.286Z,98663.41
2023-08-29T08:40:42.440Z,98667.09
2023-08-29T08:56:24.756Z,98646.38
2023-08-29T08:57:57.684Z,98640.25
2023-08-29T08:59:29.741Z,98642.81
2023-08-29T09:01:02.336Z,98640.88
2023-08-29T09:02:35.488Z,98632.31
2023-08-29T09:04:10.429Z,98637.25
2023-08-29T09:05:44.361Z,98630.94
2023-08-29T09:07:17.484Z,98634.28
2023-08-29T09:08:50.519Z,98636.63
2023-08-29T09:10:24.950Z,98638.13
2023-08-29T09:11:59.295Z,98629.75
2023-08-29T09:13:32.036Z,98639.25
2023-08-29T09:15:07.713Z,98638.28
2023-08-29T09:16:40.994Z,98632.09
2023-08-29T09:18:16.150Z,98629.63
2023-08-29T09:19:48.964Z,98626.38
2023-08-29T09:21:23.296Z,98631.34
2023-08-29T09:22:58.352Z,98620.66
2023-08-29T09:24:30.856Z,98622.09
2023-08-29T09:26:03.088Z,98621.50
2023-08-29T09:27:42.173Z,98627.72
2023-08-29T09:29:28.463Z,98624.63
2023-08-29T09:31:08.510Z,98622.56
2023-08-29T09:32:54.484Z,98613.88
2023-08-29T09:34:36.630Z,98614.94
2023-08-29T09:36:09.922Z,98615.75
2023-08-29T09:37:46.691Z,98625.25
2023-08-29T09:39:19.177Z,98624.84
2023-08-29T09:40:53.371Z,98621.75
2023-08-29T09:42:25.541Z,98620.53
2023-08-29T09:43:59.025Z,98618.28
2023-08-29T09:45:32.954Z,98611.03
2023-08-29T09:47:07.304Z,98615.75
2023-08-29T09:48:56.536Z,98610.41
2023-08-29T09:50:30.307Z,98614.94
2023-08-29T09:52:04.352Z,98610.41
2023-08-29T09:53:36.789Z,98612.88
2023-08-29T09:57:40.306Z,98617.59
2023-08-29T09:59:16.953Z,98599.63
2023-08-29T10:00:49.599Z,98606.88
2023-08-29T10:02:23.882Z,98613.03
2023-08-29T10:03:58.735Z,98605.59
2023-08-29T10:05:36.460Z,98609.50
2023-08-29T10:07:10.277Z,98598.41
2023-08-29T10:08:52.058Z,98604.16
2023-08-29T10:10:25.893Z,98593.78
2023-08-29T10:11:59.834Z,98599.75
2023-08-29T10:13:32.161Z,98594.56
2023-08-29T10:15:05.708Z,98593.31
2023-08-29T10:16:39.260Z,98590.38
2023-08-29T10:18:14.330Z,98583.34
2023-08-29T10:19:46.721Z,98585.81
2023-08-29T10:21:23.110Z,98582.31
2023-08-29T10:22:56.117Z,98582.47
2023-08-29T10:24:28.648Z,98587.41
2023-08-29T10:26:02.664Z,98577.66
2023-08-29T10:27:35.974Z,98582.38
2023-08-29T10:29:08.634Z,98581.97
2023-08-29T10:30:45.148Z,98587.28
2023-08-29T10:32:17.762Z,98586.28
2023-08-29T10:33:50.157Z,98580.00
2023-08-29T10:35:25.661Z,98575.00
2023-08-29T10:36:58.645Z,98580.59
2023-08-29T10:38:31.977Z,98581.25
2023-08-29T10:40:15.604Z,98582.53
2023-08-29T10:41:48.576Z,98580.50
2023-08-29T10:43:25.936Z,98581.16
2023-08-29T10:44:58.320Z,98580.78
2023-08-29T10:46:31.596Z,98572.13
2023-08-29T10:48:04.924Z,98572.16
2023-08-29T10:49:46.729Z,98581.69
2023-08-29T10:51:26.741Z,98580.06
2023-08-29T10:53:00.237Z,98581.78
2023-08-29T10:54:32.411Z,98578.50
2023-08-29T10:56:07.096Z,98576.44
2023-08-29T10:57:39.362Z,98576.91
2023-08-29T10:59:36.189Z,98571.91
2023-08-29T11:01:11.119Z,98578.78
2023-08-29T11:21:10.659Z,98590.84
2023-08-29T11:22:49.584Z,98592.50
2023-08-29T11:24:23.475Z,98613.69
2023-08-29T11:25:56.042Z,98620.53
2023-08-29T12:01:41.619Z,98558.66
2023-08-29T12:06:32.577Z,98565.91
2023-08-29T12:32:04.857Z,98560.28
2023-08-29T12:33:37.449Z,98554.41
2023-08-29T12:35:10.146Z,98560.38
2023-08-29T12:36:42.375Z,98556.22
2023-08-29T12:38:15.202Z,98550.22
2023-08-29T12:39:47.457Z,98555.56
2023-08-29T12:41:19.892Z,98545.91
2023-08-29T12:42:53.498Z,98550.06
2023-08-29T12:44:25.627Z,98543.75
2023-08-29T12:46:00.263Z,98539.88
2023-08-29T12:47:32.842Z,98538.69
2023-08-29T12:49:05.231Z,98537.50
2023-08-29T12:53:50.935Z,98544.47
2023-08-29T12:55:23.163Z,98544.75
2023-08-29T12:58:30.692Z,98540.78
2023-08-29T13:00:03.289Z,98548.75
2023-08-29T13:01:35.468Z,98546.00
2023-08-29T13:03:08.083Z,98545.69
2023-08-29T13:04:40.659Z,98553.84
2023-08-29T13:06:12.787Z,98545.56
2023-08-29T13:07:47.329Z,98555.75
2023-08-29T13:09:34.650Z,98564.06
2023-08-29T13:11:08.849Z,98568.25
2023-08-29T13:12:41.616Z,98564.66
2023-08-29T13:17:31.348Z,98580.78
2023-08-29T13:19:04.277Z,98596.13
2023-08-29T13:22:08.175Z,98621.81
2023-08-29T13:23:40.448Z,98607.22
2023-08-29T13:25:12.681Z,98596.78
2023-08-29T13:26:44.768Z,98584.63
2023-08-29T13:28:16.879Z,98569.81
2023-08-29T13:29:49.022Z,98551.69
2023-08-29T13:31:24.457Z,98550.25
2023-08-29T13:32:56.905Z,98541.22
2023-08-29T13:34:29.439Z,98534.88
2023-08-29T13:36:01.589Z,98522.38
2023-08-29T13:37:36.639Z,98521.97
2023-08-29T13:39:08.801Z,98517.84
2023-08-29T13:40:44.013Z,98519.47
2023-08-29T13:42:18.909Z,98523.81
2023-08-29T13:43:51.372Z,98518.84
2023-08-29T13:45:23.587Z,98513.25
2023-08-29T13:46:55.712Z,98517.25
2023-08-29T13:48:27.883Z,98517.91
2023-08-29T13:50:00.229Z,98521.06
2023-08-29T13:51:32.343Z,98519.75
2023-08-29T13:53:04.808Z,98518.44
2023-08-29T13:54:37.789Z,98508.69
2023-08-29T13:56:10.059Z,98519.63
2023-08-29T13:57:42.158Z,98517.00
2023-08-29T13:59:14.334Z,98513.34
2023-08-29T14:00:46.690Z,98511.00
2023-08-29T14:02:19.112Z,98519.97
2023-08-29T14:03:51.285Z,98518.97
2023-08-29T14:05:23.672Z,98519.97
2023-08-29T14:06:56.243Z,98521.13
2023-08-29T14:08:28.440Z,98524.47
2023-08-29T14:10:00.572Z,98516.34
2023-08-29T14:11:32.816Z,98523.00
2023-08-29T14:13:05.308Z,98514.69
2023-08-29T14:14:37.541Z,98524.19
2023-08-29T14:16:10.479Z,98520.53
2023-08-29T14:17:43.876Z,98512.59
2023-08-29T14:21:01.536Z,98509.44
2023-08-29T14:22:33.920Z,98505.00
2023-08-29T14:24:06.282Z,98508.00
2023-08-29T14:29:00.545Z,98496.25
2023-08-29T14:30:32.801Z,98506.56
2023-08-29T14:32:06.933Z,98501.75
2023-08-29T14:33:39.311Z,98504.59
2023-08-29T14:35:11.514Z,98493.94
2023-08-29T14:36:43.591Z,98492.47
2023-08-29T14:38:15.696Z,98493.47
2023-08-29T14:39:48.347Z,98484.84
2023-08-29T14:41:20.720Z,98492.31
2023-08-29T14:42:52.880Z,98489.00
2023-08-29T14:44:25.004Z,98496.47
2023-08-29T14:45:58.745Z,98494.31
2023-08-29T14:47:30.933Z,98491.97
2023-08-29T14:49:04.399Z,98496.78
2023-08-29T14:50:36.749Z,98495.28
2023-08-29T14:52:08.867Z,98504.22
2023-08-29T14:53:41.544Z,98497.56
2023-08-29T14:55:13.841Z,98500.06
2023-08-29T14:56:46.013Z,98509.88
2023-08-29T14:58:18.165Z,98505.53
2023-08-29T14:59:50.551Z,98511.34
2023-08-29T15:01:23.688Z,98505.22
2023-08-29T15:02:55.832Z,98509.69
2023-08-29T15:06:02.836Z,98504.69
2023-08-29T15:07:34.964Z,98511.19
2023-08-29T15:09:09.006Z,98509.19
2023-08-29T15:10:41.402Z,98507.53
2023-08-29T15:12:13.597Z,98506.03
2023-08-29T15:13:48.674Z,98510.84
2023-08-29T15:15:20.954Z,98516.53
2023-08-29T15:16:53.254Z,98514.03
2023-08-29T15:18:25.368Z,98527.97
2023-08-29T15:19:58.352Z,98511.22
2023-08-29T15:35:24.343Z,98506.09
2023-08-29T15:36:57.245Z,98504.59
2023-08-29T15:38:30.578Z,98508.09
2023-08-29T15:40:02.800Z,98505.91
2023-08-29T15:41:34.965Z,98505.59
2023-08-29T15:43:07.095Z,98516.88
2023-08-29T15:44:39.271Z,98516.38
2023-08-29T15:46:11.486Z,98527.16
2023-08-29T15:47:44.460Z,98527.50
2023-08-29T15:50:49.631Z,98530.16
2023-08-29T15:52:21.774Z,98529.66
2023-08-29T15:53:53.948Z,98529.16
2023-08-29T15:55:26.074Z,98530.16
2023-08-29T15:56:58.503Z,98525.16
2023-08-29T15:58:30.879Z,98527.13
2023-08-29T16:00:10.978Z,98523.00
2023-08-29T16:01:43.187Z,98534.63
2023-08-29T16:03:15.491Z,98529.97
2023-08-29T16:04:47.844Z,98536.09
2023-08-29T16:06:20.863Z,98539.78
2023-08-29T16:07:53.751Z,98542.25
2023-08-29T16:09:26.584Z,98547.53
2023-08-29T16:10:58.964Z,98537.13
2023-08-29T16:12:33.012Z,98540.25
2023-08-29T16:14:05.192Z,98532.78
2023-08-29T16:15:37.983Z,98526.97
2023-08-29T16:17:10.236Z,98532.09
2023-08-29T16:18:42.430Z,98530.75
2023-08-29T16:20:15.101Z,98523.59
2023-08-29T16:21:48.503Z,98505.34
2023-08-29T16:23:20.879Z,98479.94
2023-08-29T16:24:57.417Z,98480.88
2023-08-29T16:26:30.740Z,98482.38
2023-08-29T16:28:03.482Z,98486.00
2023-08-29T16:29:38.602Z,98490.81
2023-08-29T16:31:11.228Z,98509.72
2023-08-29T16:32:43.739Z,98506.56
2023-08-29T16:35:57.009Z,98515.00
2023-08-29T16:37:29.209Z,98516.00
2023-08-29T16:39:01.785Z,98518.97
2023-08-29T16:40:35.805Z,98518.00
2023-08-29T16:42:08.408Z,98521.47
2023-08-29T16:43:42.629Z,98532.59
2023-08-29T16:45:14.924Z,98539.22
2023-08-29T16:46:47.340Z,98541.88
2023-08-29T16:48:22.356Z,98546.50
2023-08-29T16:49:54.693Z,98544.00
2023-08-29T16:51:27.356Z,98544.31
2023-08-29T16:52:59.564Z,98542.28
2023-08-29T16:54:31.721Z,98537.25
2023-08-29T16:56:08.900Z,98547.34
2023-08-29T16:57:41.604Z,98546.44
2023-08-29T16:59:13.781Z,98551.06
2023-08-29T17:00:47.325Z,98554.72
2023-08-29T17:02:19.730Z,98554.03
2023-08-29T17:03:52.172Z,98550.03
2023-08-29T17:05:24.696Z,98539.72
2023-08-29T17:06:56.938Z,98537.22
2023-08-29T17:08:29.315Z,98542.53
2023-08-29T17:10:01.944Z,98535.72
2023-08-29T17:11:34.115Z,98529.91
2023-08-29T17:13:06.415Z,98526.75
2023-08-29T17:14:39.798Z,98529.41
2023-08-29T17:16:12.450Z,98532.19
2023-08-29T17:17:45.048Z,98534.19
2023-08-29T17:19:17.834Z,98544.41
2023-08-29T17:20:50.144Z,98540.25
2023-08-29T17:22:22.425Z,98541.38
2023-08-29T17:23:54.634Z,98539.06
2023-08-29T17:25:26.766Z,98546.00
2023-08-29T17:26:59.083Z,98538.38
2023-08-29T17:28:31.392Z,98533.38
2023-08-29T17:30:06.842Z,98529.69
2023-08-29T17:31:39.430Z,98522.66
2023-08-29T17:33:11.656Z,98521.16
2023-08-29T17:43:04.332Z,98562.28
2023-08-29T17:44:37.387Z,98565.16
2023-08-29T17:47:58.554Z,98562.13
2023-08-29T17:49:30.703Z,98576.03
2023-08-29T17:51:04.063Z,98574.66
2023-08-29T17:52:36.360Z,98576.66
2023-08-29T17:54:08.584Z,98573.16
2023-08-29T17:55:40.705Z,98576.94
2023-08-29T17:57:12.839Z,98571.97
2023-08-29T17:58:49.896Z,98570.69
2023-08-29T18:00:22.556Z,98583.94
2023-08-29T18:01:54.816Z,98585.72
2023-08-29T18:03:27.124Z,98593.84
2023-08-29T18:04:59.915Z,98602.59
2023-08-29T18:06:32.068Z,98603.41
2023-08-29T18:08:05.428Z,98593.97
2023-08-29T18:09:38.275Z,98603.41
2023-08-29T18:11:10.922Z,98615.69
2023-08-29T18:12:46.217Z,98617.13
2023-08-29T18:14:33.183Z,98628.84
2023-08-29T18:16:12.033Z,98633.22
2023-08-29T18:17:47.483Z,98642.31
2023-08-29T18:22:42.599Z,98612.88
2023-08-29T18:25:55.684Z,98585.41
2023-08-29T18:27:27.864Z,98585.03
2023-08-29T18:30:43.354Z,98580.22
2023-08-29T18:32:15.897Z,98586.22
2023-08-29T18:35:20.838Z,98582.28
2023-08-29T18:36:52.950Z,98582.97
2023-08-29T18:38:25.408Z,98594.06
2023-08-29T18:39:58.338Z,98581.00
2023-08-29T18:41:30.584Z,98549.84
2023-08-29T18:43:06.297Z,98518.22
2023-08-29T18:44:38.466Z,98479.13
2023-08-29T18:46:12.114Z,98502.72
2023-08-29T18:47:44.488Z,98548.81
2023-08-29T18:49:16.645Z,98596.69
2023-08-29T18:51:06.996Z,98589.47
2023-08-29T18:52:39.225Z,98572.66
2023-08-29T19:04:16.020Z,98558.72
2023-08-29T19:05:48.226Z,98564.84
2023-08-29T19:07:20.565Z,98565.97
2023-08-29T19:08:53.108Z,98553.56
2023-08-29T19:10:25.517Z,98561.06
2023-08-29T19:11:58.946Z,98555.63
2023-08-29T19:13:31.205Z,98563.56
2023-08-29T19:15:07.250Z,98552.84
2023-08-29T19:16:39.555Z,98561.06
2023-08-29T19:18:15.088Z,98571.66
2023-08-29T19:19:47.448Z,98572.78
2023-08-29T19:21:19.585Z,98591.44
2023-08-29T19:22:51.679Z,98589.22
2023-08-29T19:24:23.792Z,98589.41
2023-08-29T19:25:59.353Z,98593.00
2023-08-29T19:27:32.681Z,98591.19
2023-08-29T19:29:04.851Z,98596.66
2023-08-29T19:30:36.986Z,98604.56
2023-08-29T19:32:09.131Z,98611.81
2023-08-29T19:33:41.408Z,98613.47
2023-08-29T19:35:15.470Z,98606.22
2023-08-29T19:42:38.648Z,98609.56
2023-08-29T19:44:11.385Z,98620.84
2023-08-29T19:45:43.939Z,98620.00
2023-08-29T19:48:52.745Z,98614.59
2023-08-29T19:50:24.949Z,98617.38
2023-08-29T19:51:57.314Z,98613.19
2023-08-29T19:53:29.467Z,98605.97
2023-08-29T19:55:02.176Z,98594.25
2023-08-29T19:56:34.327Z,98597.84
2023-08-29T19:58:06.702Z,98600.38
2023-08-29T19:59:39.635Z,98616.09
2023-08-29T20:01:11.882Z,98625.53
2023-08-29T20:02:47.918Z,98633.47
2023-08-29T20:04:20.157Z,98630.00
2023-08-29T20:05:53.962Z,98626.69
2023-08-29T20:07:26.128Z,98622.09
2023-08-29T20:08:58.423Z,98626.00
2023-08-29T20:10:30.849Z,98624.63
2023-08-29T20:12:03.230Z,98634.50
2023-08-29T20:13:35.433Z,98642.44
2023-08-29T20:15:08.236Z,98629.22
2023-08-29T20:16:40.628Z,98618.25
2023-08-29T20:18:13.891Z,98613.25
2023-08-29T20:19:46.063Z,98597.38
2023-08-29T20:21:18.312Z,98594.47
2023-08-29T20:22:50.480Z,98606.31
2023-08-29T20:24:22.659Z,98616.72
2023-08-29T20:25:55.843Z,98620.22
2023-08-29T20:27:27.878Z,98624.50
2023-08-29T20:29:03.065Z,98640.56
2023-08-29T20:30:39.331Z,98640.56
2023-08-29T20:32:11.811Z,98637.47
2023-08-29T20:33:43.901Z,98642.38
2023-08-29T20:35:16.252Z,98636.09
2023-08-29T20:36:50.060Z,98632.88
2023-08-29T20:38:22.822Z,98638.44
2023-08-29T20:39:55.227Z,98641.63
2023-08-29T20:41:27.417Z,98646.91
2023-08-29T20:43:00.082Z,98649.00
2023-08-29T20:44:32.699Z,98657.38
2023-08-29T20:46:04.767Z,98657.53
2023-08-29T20:47:37.893Z,98660.31
2023-08-29T20:49:10.057Z,98652.94
2023-08-29T20:50:48.258Z,98662.53
2023-08-29T20:52:21.713Z,98659.75
2023-08-29T20:53:53.769Z,98663.09
2023-08-29T20:55:26.076Z,98666.44
2023-08-29T20:56:58.192Z,98664.63
2023-08-29T20:58:30.550Z,98665.59
2023-08-29T21:00:02.773Z,98660.88
2023-08-29T21:01:35.406Z,98637.66
2023-08-29T21:03:08.264Z,98661.81
2023-08-29T21:11:21.389Z,98681.56
2023-08-29T21:14:26.399Z,98700.59
2023-08-29T21:20:06.854Z,98716.59
2023-08-29T21:21:39.106Z,98723.94
2023-08-29T21:34:19.608Z,98761.28
2023-08-29T21:35:53.095Z,98773.53
2023-08-29T21:37:25.284Z,98780.75
2023-08-29T21:38:57.609Z,98783.50
2023-08-29T21:40:29.970Z,98786.97
2023-08-29T21:42:02.006Z,98779.91
2023-08-29T21:43:34.284Z,98790.59
2023-08-29T21:45:09.118Z,98788.66
2023-08-29T21:46:41.325Z,98795.59
2023-08-29T21:48:13.571Z,98792.25
2023-08-29T21:49:45.823Z,98789.91
2023-08-29T21:54:30.849Z,98785.03
2023-08-29T21:56:09.517Z,98786.16
2023-08-29T21:57:41.682Z,98783.78
2023-08-29T21:59:14.576Z,98789.19
2023-08-29T22:00:54.122Z,98790.03
2023-08-29T22:02:26.384Z,98792.50
2023-08-29T22:05:34.844Z,98801.41
2023-08-29T22:35:24.841Z,98849.84
2023-08-29T22:36:56.972Z,98840.41
2023-08-29T22:38:29.395Z,98844.69
2023-08-29T22:40:02.497Z,98837.66
2023-08-29T22:41:35.058Z,98840.13
2023-08-29T22:43:07.326Z,98845.28
2023-08-29T22:44:42.566Z,98843.34
2023-08-29T22:46:14.851Z,98843.88
2023-08-29T22:47:47.066Z,98829.38
2023-08-29T22:49:20.074Z,98840.66
2023-08-29T22:50:52.191Z,98843.78
2023-08-29T22:52:24.898Z,98853.50
2023-08-29T22:53:58.750Z,98847.19
2023-08-29T22:55:31.294Z,98855.34
2023-08-29T22:57:03.913Z,98852.03
2023-08-29T22:58:35.998Z,98850.94
2023-08-29T23:00:11.369Z,98842.44
2023-08-29T23:01:43.518Z,98844.25
2023-08-29T23:03:16.006Z,98850.34
2023-08-29T23:04:48.323Z,98845.91
2023-08-29T23:06:22.045Z,98845.06
2023-08-29T23:07:54.141Z,98842.00
2023-08-29T23:09:27.804Z,98840.81
2023-08-29T23:11:00.042Z,98838.66
2023-08-29T23:12:32.109Z,98830.72
2023-08-29T23:14:04.582Z,98831.94
2023-08-29T23:15:36.754Z,98839.72
2023-08-29T23:17:11.907Z,98832.78
2023-08-29T23:34:12.004Z,98834.41
2023-08-29T23:35:47.602Z,98832.59
2023-08-29T23:37:19.719Z,98836.22
2023-08-29T23:38:55.287Z,98830.09
2023-08-29T23:40:27.917Z,98824.47
2023-08-29T23:42:01.302Z,98827.38
2023-08-29T23:43:33.512Z,98828.31
2023-08-29T23:45:07.324Z,98836.22
2023-08-29T23:46:39.516Z,98837.44
2023-08-29T23:48:11.923Z,98828.94
2023-08-29T23:49:44.460Z,98832.06
2023-08-29T23:51:16.850Z,98837.31
2023-08-29T23:52:48.943Z,98838.84
2023-08-29T23:54:21.100Z,98843.03
2023-08-29T23:55:53.209Z,98841.50
2023-08-29T23:57:25.290Z,98843.41
2023-08-29T23:58:57.430Z,98848.34
